createdAt,value
2019-03-28T00:00:55.486Z,16.12
2019-03-28T00:03:25.178Z,15.45
2019-03-28T00:05:54.983Z,15.32
2019-03-28T00:08:24.794Z,14.93
2019-03-28T00:10:54.548Z,15.63
2019-03-28T00:13:24.295Z,18.05
2019-03-28T00:15:56.318Z,17.80
2019-03-28T00:18:26.084Z,16.97
2019-03-28T00:20:55.777Z,15.85
2019-03-28T00:23:44.584Z,15.85
2019-03-28T00:26:14.429Z,17.92
2019-03-28T00:28:44.213Z,16.97
2019-03-28T00:31:13.973Z,18.35
2019-03-28T00:33:44.365Z,18.17
2019-03-28T00:36:14.323Z,17.92
2019-03-28T00:38:44.142Z,18.35
2019-03-28T00:41:13.866Z,17.85
2019-03-28T00:43:43.594Z,17.65
2019-03-28T00:46:13.348Z,18.62
2019-03-28T00:48:43.139Z,19.40
2019-03-28T00:51:12.902Z,22.02
2019-03-28T00:53:42.682Z,19.57
2019-03-28T00:56:12.437Z,20.10
2019-03-28T00:58:42.235Z,20.57
2019-03-28T01:01:12.089Z,20.37
2019-03-28T01:03:41.811Z,20.05
2019-03-28T01:06:11.488Z,20.60
2019-03-28T01:08:41.409Z,19.57
2019-03-28T01:11:11.212Z,20.15
2019-03-28T01:13:41.561Z,20.37
2019-03-28T01:16:11.369Z,20.72
2019-03-28T01:18:41.127Z,20.12
2019-03-28T01:21:10.935Z,20.08
2019-03-28T01:23:40.729Z,21.75
2019-03-28T01:26:10.562Z,20.82
2019-03-28T01:28:41.134Z,21.55
2019-03-28T01:31:10.993Z,20.40
2019-03-28T01:33:40.835Z,21.12
2019-03-28T01:36:10.458Z,20.45
2019-03-28T01:38:40.167Z,20.90
2019-03-28T01:41:09.985Z,22.52
2019-03-28T01:43:39.683Z,21.40
2019-03-28T01:46:09.476Z,21.77
2019-03-28T01:48:39.236Z,22.60
2019-03-28T01:51:09.305Z,21.77
2019-03-28T01:53:39.145Z,23.52
2019-03-28T01:56:08.962Z,22.60
2019-03-28T01:58:38.861Z,24.30
2019-03-28T02:01:08.851Z,23.00
2019-03-28T02:03:38.540Z,23.75
2019-03-28T02:06:09.205Z,23.98
2019-03-28T02:08:39.019Z,22.70
2019-03-28T02:11:08.734Z,24.12
2019-03-28T02:13:38.491Z,22.65
2019-03-28T02:16:08.257Z,21.62
2019-03-28T02:18:38.035Z,23.77
2019-03-28T02:21:09.606Z,24.00
2019-03-28T02:23:39.179Z,24.65
2019-03-28T02:26:09.172Z,23.38
2019-03-28T02:28:38.886Z,24.18
2019-03-28T02:31:08.668Z,25.05
2019-03-28T02:33:38.476Z,26.40
2019-03-28T02:36:08.260Z,22.73
2019-03-28T02:38:38.021Z,22.87
2019-03-28T02:41:08.672Z,22.93
2019-03-28T02:43:38.560Z,22.58
2019-03-28T02:46:08.259Z,24.10
2019-03-28T02:48:38.037Z,25.10
2019-03-28T02:51:07.794Z,24.25
2019-03-28T02:53:37.572Z,22.70
2019-03-28T02:56:07.397Z,22.65
2019-03-28T02:58:37.254Z,23.75
2019-03-28T03:01:07.130Z,25.52
2019-03-28T03:03:36.930Z,28.83
2019-03-28T03:06:06.722Z,30.40
2019-03-28T03:08:36.569Z,30.00
2019-03-28T03:11:06.406Z,30.55
2019-03-28T03:13:36.219Z,29.48
2019-03-28T03:16:05.909Z,29.80
2019-03-28T03:18:35.610Z,30.62
2019-03-28T03:21:05.418Z,28.60
2019-03-28T03:23:35.180Z,28.27
2019-03-28T03:26:05.043Z,28.77
2019-03-28T03:28:35.073Z,28.50
2019-03-28T03:31:04.784Z,24.05
2019-03-28T03:33:36.940Z,24.50
2019-03-28T03:36:06.078Z,24.05
2019-03-28T03:38:35.919Z,24.60
2019-03-28T03:41:07.721Z,29.80
2019-03-28T03:43:37.473Z,31.25
2019-03-28T03:46:07.158Z,30.10
2019-03-28T03:48:36.916Z,28.62
2019-03-28T03:51:06.620Z,25.92
2019-03-28T03:53:36.360Z,27.35
2019-03-28T03:56:06.142Z,26.73
2019-03-28T03:58:36.054Z,24.85
2019-03-28T04:01:06.117Z,26.30
2019-03-28T04:03:35.813Z,23.45
2019-03-28T04:06:05.527Z,24.63
2019-03-28T04:08:35.307Z,25.10
2019-03-28T04:11:05.025Z,24.45
2019-03-28T04:13:34.726Z,30.12
2019-03-28T04:16:04.535Z,29.05
2019-03-28T04:18:34.236Z,24.87
2019-03-28T04:21:03.974Z,25.50
2019-03-28T04:23:33.701Z,23.60
2019-03-28T04:26:03.426Z,23.25
2019-03-28T04:28:33.151Z,25.12
2019-03-28T04:31:02.978Z,25.90
2019-03-28T04:33:32.765Z,24.47
2019-03-28T04:36:02.547Z,24.45
2019-03-28T04:38:32.379Z,23.00
2019-03-28T04:41:02.075Z,24.25
2019-03-28T04:43:31.838Z,22.20
2019-03-28T04:46:01.606Z,22.30
2019-03-28T04:48:31.480Z,21.07
2019-03-28T04:51:01.389Z,23.52
2019-03-28T04:53:31.265Z,22.25
2019-03-28T04:56:00.994Z,21.70
2019-03-28T04:58:43.468Z,23.77
2019-03-28T05:01:02.298Z,27.15
2019-03-28T05:03:31.976Z,29.98
2019-03-28T05:06:01.714Z,31.30
2019-03-28T05:08:31.461Z,32.95
2019-03-28T05:11:01.250Z,26.12
2019-03-28T05:13:31.079Z,32.80
2019-03-28T05:16:00.779Z,32.15
2019-03-28T05:18:30.446Z,33.38
2019-03-28T05:21:00.247Z,30.75
2019-03-28T05:23:29.958Z,30.80
2019-03-28T05:25:59.658Z,29.23
2019-03-28T05:28:29.473Z,29.10
2019-03-28T05:30:59.250Z,27.07
2019-03-28T05:33:28.950Z,29.05
2019-03-28T05:35:58.745Z,27.15
2019-03-28T05:38:28.525Z,30.85
2019-03-28T05:40:58.378Z,30.62
2019-03-28T05:43:28.079Z,32.33
2019-03-28T05:45:57.812Z,31.85
2019-03-28T05:48:27.502Z,30.68
2019-03-28T05:50:57.193Z,29.77
2019-03-28T05:53:26.889Z,29.32
2019-03-28T05:55:56.713Z,29.20
2019-03-28T05:58:26.930Z,29.48
2019-03-28T06:00:56.683Z,29.70
2019-03-28T06:03:26.415Z,27.70
2019-03-28T06:05:56.129Z,28.85
2019-03-28T06:08:25.871Z,33.73
2019-03-28T06:10:55.685Z,32.67
2019-03-28T06:13:25.619Z,27.35
2019-03-28T06:15:55.503Z,26.95
2019-03-28T06:18:27.529Z,28.27
2019-03-28T06:20:59.489Z,27.40
2019-03-28T06:23:28.635Z,28.45
2019-03-28T06:25:58.757Z,28.70
2019-03-28T06:28:28.481Z,34.05
2019-03-28T06:30:58.215Z,30.45
2019-03-28T06:33:28.059Z,33.80
2019-03-28T06:35:57.800Z,34.90
2019-03-28T06:38:27.574Z,31.93
2019-03-28T06:40:57.500Z,33.28
2019-03-28T06:43:27.417Z,30.65
2019-03-28T06:45:57.282Z,31.95
2019-03-28T06:48:27.012Z,30.90
2019-03-28T06:50:56.713Z,32.03
2019-03-28T06:53:26.470Z,32.73
2019-03-28T06:55:56.195Z,31.50
2019-03-28T06:58:26.140Z,34.35
2019-03-28T07:00:55.869Z,36.15
2019-03-28T07:03:25.579Z,35.23
2019-03-28T07:05:56.809Z,36.93
2019-03-28T07:08:26.523Z,35.25
2019-03-28T07:10:57.992Z,36.28
2019-03-28T07:13:27.937Z,35.48
2019-03-28T07:15:57.690Z,36.55
2019-03-28T07:18:27.635Z,36.15
2019-03-28T07:20:57.373Z,34.15
2019-03-28T07:23:27.377Z,36.45
2019-03-28T07:25:57.073Z,36.77
2019-03-28T07:28:26.859Z,35.25
2019-03-28T07:30:56.570Z,35.98
2019-03-28T07:33:26.402Z,35.68
2019-03-28T07:35:58.925Z,36.77
2019-03-28T07:38:28.749Z,36.53
2019-03-28T07:40:58.700Z,36.17
2019-03-28T07:43:29.687Z,35.58
2019-03-28T07:45:59.416Z,39.55
2019-03-28T07:48:29.186Z,37.20
2019-03-28T07:50:58.938Z,36.30
2019-03-28T07:53:28.745Z,38.78
2019-03-28T07:55:58.614Z,38.38
2019-03-28T07:58:28.515Z,41.00
2019-03-28T08:00:58.331Z,38.78
2019-03-28T08:03:28.134Z,37.55
2019-03-28T08:05:57.863Z,36.40
2019-03-28T08:08:38.232Z,38.60
2019-03-28T08:10:59.154Z,37.28
2019-03-28T08:13:29.048Z,38.85
2019-03-28T08:15:58.868Z,38.05
2019-03-28T08:18:28.654Z,40.65
2019-03-28T08:20:58.427Z,41.80
2019-03-28T08:23:28.264Z,41.85
2019-03-28T08:25:57.965Z,36.93
2019-03-28T08:28:27.805Z,38.08
2019-03-28T08:30:57.614Z,37.30
2019-03-28T08:33:27.425Z,39.70
2019-03-28T08:35:57.241Z,37.25
2019-03-28T08:38:27.649Z,37.20
2019-03-28T08:40:57.463Z,38.67
2019-03-28T08:43:27.239Z,39.95
2019-03-28T08:45:56.907Z,35.15
2019-03-28T08:48:26.722Z,37.73
2019-03-28T08:50:56.655Z,38.23
2019-03-28T08:53:26.820Z,39.63
2019-03-28T08:55:56.806Z,39.00
2019-03-28T08:58:28.336Z,38.95
2019-03-28T09:00:59.154Z,38.10
2019-03-28T09:03:28.856Z,41.88
2019-03-28T09:05:58.568Z,49.77
2019-03-28T09:08:28.328Z,39.10
2019-03-28T09:10:58.142Z,37.75
2019-03-28T09:13:27.876Z,37.65
2019-03-28T09:15:57.649Z,37.48
2019-03-28T09:18:28.028Z,36.80
2019-03-28T09:20:57.791Z,38.95
2019-03-28T09:23:27.490Z,38.90
2019-03-28T09:25:57.172Z,38.90
2019-03-28T09:28:26.950Z,40.90
2019-03-28T09:30:56.711Z,44.35
2019-03-28T09:33:27.825Z,41.63
2019-03-28T09:35:57.662Z,40.80
2019-03-28T09:38:27.369Z,40.88
2019-03-28T09:40:57.154Z,41.15
2019-03-28T09:43:26.938Z,41.80
2019-03-28T09:46:00.109Z,42.60
2019-03-28T09:48:28.152Z,40.67
2019-03-28T09:50:57.899Z,41.68
2019-03-28T09:53:28.010Z,40.73
2019-03-28T09:55:59.452Z,42.30
2019-03-28T09:58:29.269Z,40.70
2019-03-28T10:01:03.177Z,42.75
2019-03-28T10:03:31.185Z,43.68
2019-03-28T10:06:00.933Z,42.25
2019-03-28T10:08:30.617Z,41.68
2019-03-28T10:11:00.337Z,41.05
2019-03-28T10:13:30.023Z,43.55
2019-03-28T10:15:59.834Z,42.40
2019-03-28T10:18:30.240Z,44.30
2019-03-28T10:21:01.470Z,43.23
2019-03-28T10:23:31.146Z,43.75
2019-03-28T10:26:01.838Z,45.60
2019-03-28T10:28:31.542Z,52.70
2019-03-28T10:31:01.328Z,43.55
2019-03-28T10:33:31.128Z,38.08
2019-03-28T10:36:00.870Z,44.30
2019-03-28T10:38:30.604Z,42.80
2019-03-28T10:41:00.479Z,43.17
2019-03-28T10:43:31.724Z,45.97
2019-03-28T10:46:01.783Z,44.40
2019-03-28T10:48:31.492Z,40.93
2019-03-28T10:51:01.308Z,40.90
2019-03-28T10:53:31.041Z,41.23
2019-03-28T10:56:00.827Z,39.03
2019-03-28T10:58:30.668Z,40.00
2019-03-28T11:01:00.407Z,40.10
2019-03-28T11:03:30.437Z,41.20
2019-03-28T11:06:02.810Z,41.80
2019-03-28T11:08:32.580Z,38.20
2019-03-28T11:11:02.692Z,36.90
2019-03-28T11:13:32.484Z,34.27
2019-03-28T11:16:02.253Z,33.60
2019-03-28T11:18:31.957Z,32.63
2019-03-28T11:21:01.685Z,30.60
2019-03-28T11:23:32.602Z,31.73
2019-03-28T11:26:02.541Z,30.77
2019-03-28T11:28:32.341Z,32.57
2019-03-28T11:31:02.029Z,30.50
2019-03-28T11:33:31.843Z,26.37
2019-03-28T11:36:01.577Z,25.20
2019-03-28T11:38:31.285Z,26.60
2019-03-28T11:41:01.087Z,27.00
2019-03-28T11:43:30.789Z,26.73
2019-03-28T11:46:00.557Z,22.13
2019-03-28T11:48:30.474Z,21.57
2019-03-28T11:51:00.351Z,22.07
2019-03-28T11:53:31.373Z,20.80
2019-03-28T11:56:01.930Z,19.77
2019-03-28T11:58:31.638Z,19.17
2019-03-28T12:01:01.410Z,21.03
2019-03-28T12:03:31.201Z,22.47
2019-03-28T12:06:00.987Z,19.60
2019-03-28T12:08:30.767Z,19.97
2019-03-28T12:11:00.481Z,19.50
2019-03-28T12:13:39.081Z,20.37
2019-03-28T12:16:01.765Z,19.10
2019-03-28T12:18:31.421Z,21.90
2019-03-28T12:21:01.361Z,22.67
2019-03-28T12:23:31.146Z,22.73
2019-03-28T12:26:00.861Z,25.80
2019-03-28T12:28:30.711Z,22.77
2019-03-28T12:31:00.644Z,24.40
2019-03-28T12:33:30.334Z,25.10
2019-03-28T12:36:00.052Z,26.70
2019-03-28T12:38:29.769Z,25.27
2019-03-28T12:40:59.501Z,25.93
2019-03-28T12:43:29.217Z,26.27
2019-03-28T12:45:58.975Z,26.13
2019-03-28T12:48:28.784Z,24.47
2019-03-28T12:50:59.297Z,26.70
2019-03-28T12:53:29.913Z,24.50
2019-03-28T12:55:59.606Z,24.47
2019-03-28T12:58:29.318Z,23.80
2019-03-28T13:01:01.821Z,22.73
2019-03-28T13:03:44.789Z,24.13
2019-03-28T13:06:03.909Z,21.20
2019-03-28T13:08:33.799Z,23.20
2019-03-28T13:11:03.601Z,23.00
2019-03-28T13:13:33.531Z,21.37
2019-03-28T13:16:03.810Z,22.57
2019-03-28T13:18:36.047Z,23.27
2019-03-28T13:21:13.372Z,22.80
2019-03-28T13:23:40.834Z,21.80
2019-03-28T13:26:10.510Z,22.30
2019-03-28T13:28:40.396Z,20.73
2019-03-28T13:31:10.326Z,23.30
2019-03-28T13:33:40.068Z,22.90
2019-03-28T13:36:09.815Z,23.50
2019-03-28T13:38:39.710Z,21.87
2019-03-28T13:41:09.485Z,23.47
2019-03-28T13:43:39.194Z,25.30
2019-03-28T13:46:08.966Z,25.23
2019-03-28T13:48:38.667Z,25.83
2019-03-28T13:51:08.441Z,28.70
2019-03-28T13:53:39.986Z,26.13
2019-03-28T13:56:09.887Z,27.93
2019-03-28T13:58:39.692Z,26.27
2019-03-28T14:01:09.559Z,25.80
2019-03-28T14:03:39.291Z,27.17
2019-03-28T14:06:09.178Z,28.10
2019-03-28T14:08:39.062Z,28.53
2019-03-28T14:11:08.863Z,28.70
2019-03-28T14:13:38.668Z,30.07
2019-03-28T14:16:08.483Z,29.10
2019-03-28T14:18:38.489Z,30.73
2019-03-28T14:21:08.297Z,30.67
2019-03-28T14:23:38.122Z,31.87
2019-03-28T14:26:07.901Z,30.10
2019-03-28T14:28:37.734Z,27.90
2019-03-28T14:31:07.691Z,25.67
2019-03-28T14:33:37.714Z,23.80
2019-03-28T14:36:07.458Z,24.43
2019-03-28T14:38:37.698Z,23.80
2019-03-28T14:41:07.488Z,27.40
2019-03-28T14:43:37.401Z,28.47
2019-03-28T14:46:07.162Z,26.53
2019-03-28T14:48:37.045Z,26.47
2019-03-28T14:51:06.804Z,25.30
2019-03-28T14:53:36.571Z,25.10
2019-03-28T14:56:06.554Z,25.03
2019-03-28T14:58:38.254Z,28.20
2019-03-28T15:01:08.030Z,28.60
2019-03-28T15:03:38.690Z,25.33
2019-03-28T15:06:08.432Z,25.93
2019-03-28T15:08:38.205Z,30.80
2019-03-28T15:11:07.932Z,27.80
2019-03-28T15:13:40.325Z,27.33
2019-03-28T15:16:09.394Z,28.57
2019-03-28T15:18:39.140Z,25.80
2019-03-28T15:21:08.850Z,25.20
2019-03-28T15:23:44.266Z,26.27
2019-03-28T15:26:14.199Z,26.97
2019-03-28T15:28:44.206Z,25.37
2019-03-28T15:31:14.040Z,26.00
2019-03-28T15:33:43.950Z,27.67
2019-03-28T15:36:13.915Z,27.20
2019-03-28T15:38:43.774Z,26.87
2019-03-28T15:41:13.672Z,27.00
2019-03-28T15:43:48.854Z,29.10
2019-03-28T15:46:18.406Z,27.83
2019-03-28T15:48:49.463Z,25.33
2019-03-28T15:51:20.281Z,26.37
2019-03-28T15:53:50.678Z,26.07
2019-03-28T15:56:20.642Z,30.37
2019-03-28T15:58:50.722Z,27.83
2019-03-28T16:01:22.766Z,31.40
2019-03-28T16:03:53.517Z,28.93
2019-03-28T16:06:23.843Z,26.77
2019-03-28T16:08:53.857Z,24.17
2019-03-28T16:11:23.625Z,27.83
2019-03-28T16:13:53.335Z,22.77
2019-03-28T16:16:22.977Z,26.03
2019-03-28T16:19:01.518Z,27.63
2019-03-28T16:21:30.268Z,25.90
2019-03-28T16:24:00.032Z,27.83
2019-03-28T16:26:30.344Z,26.30
2019-03-28T16:29:00.217Z,28.43
2019-03-28T16:31:29.943Z,30.60
2019-03-28T16:34:06.671Z,26.43
2019-03-28T16:36:31.247Z,24.93
2019-03-28T16:39:01.007Z,25.83
2019-03-28T16:41:30.913Z,26.80
2019-03-28T16:44:00.754Z,25.30
2019-03-28T16:46:30.659Z,26.57
2019-03-28T16:49:00.541Z,26.87
2019-03-28T16:51:30.387Z,27.67
2019-03-28T16:54:00.200Z,26.57
2019-03-28T16:56:29.920Z,27.63
2019-03-28T16:58:59.662Z,25.93
2019-03-28T17:01:29.404Z,27.97
2019-03-28T17:03:59.236Z,33.40
2019-03-28T17:06:29.066Z,32.90
2019-03-28T17:09:00.009Z,32.77
2019-03-28T17:11:29.832Z,33.37
2019-03-28T17:13:59.803Z,32.80
2019-03-28T17:16:29.749Z,34.80
2019-03-28T17:18:59.800Z,35.90
2019-03-28T17:21:29.518Z,33.93
2019-03-28T17:23:59.354Z,35.47
2019-03-28T17:26:29.120Z,33.70
2019-03-28T17:28:58.995Z,32.70
2019-03-28T17:31:29.282Z,32.13
2019-03-28T17:33:59.066Z,32.30
2019-03-28T17:36:28.876Z,29.37
2019-03-28T17:38:58.681Z,27.73
2019-03-28T17:41:28.378Z,27.23
2019-03-28T17:43:58.149Z,28.30
2019-03-28T17:46:28.311Z,28.63
2019-03-28T17:48:58.841Z,27.73
2019-03-28T17:51:29.574Z,29.00
2019-03-28T17:53:59.317Z,30.17
2019-03-28T17:56:29.139Z,32.70
2019-03-28T17:58:59.265Z,30.17
2019-03-28T18:01:29.150Z,31.33
2019-03-28T18:04:00.085Z,29.60
2019-03-28T18:06:31.538Z,29.47
2019-03-28T18:09:01.842Z,27.47
2019-03-28T18:11:31.832Z,27.33
2019-03-28T18:14:01.493Z,26.57
2019-03-28T18:16:34.413Z,27.47
2019-03-28T18:19:04.212Z,29.40
2019-03-28T18:21:35.439Z,27.90
2019-03-28T18:24:10.447Z,26.90
2019-03-28T18:26:42.455Z,27.80
2019-03-28T18:29:12.365Z,27.10
2019-03-28T18:31:50.431Z,28.10
2019-03-28T18:34:16.921Z,27.83
2019-03-28T18:36:47.968Z,29.93
2019-03-28T18:39:20.999Z,30.13
2019-03-28T18:41:50.748Z,27.90
2019-03-28T18:44:20.471Z,29.10
2019-03-28T18:46:50.392Z,28.33
2019-03-28T18:49:20.294Z,29.60
2019-03-28T18:51:50.127Z,30.50
2019-03-28T18:54:20.418Z,35.00
2019-03-28T18:56:50.298Z,33.83
2019-03-28T18:59:20.029Z,35.67
2019-03-28T19:01:49.837Z,30.40
2019-03-28T19:04:19.583Z,30.60
2019-03-28T19:06:49.415Z,31.27
2019-03-28T19:09:22.283Z,29.10
2019-03-28T19:11:52.053Z,39.60
2019-03-28T19:14:22.012Z,35.37
2019-03-28T19:16:52.314Z,31.33
2019-03-28T19:19:22.673Z,30.90
2019-03-28T19:21:55.624Z,31.50
2019-03-28T19:24:23.926Z,28.20
2019-03-28T19:26:53.711Z,30.60
2019-03-28T19:29:23.610Z,29.13
2019-03-28T19:31:53.351Z,29.47
2019-03-28T19:34:23.100Z,29.47
2019-03-28T19:36:54.433Z,29.80
2019-03-28T19:39:30.803Z,29.43
2019-03-28T19:42:04.088Z,29.93
2019-03-28T19:44:32.295Z,29.57
2019-03-28T19:47:02.117Z,29.93
2019-03-28T19:49:31.830Z,30.73
2019-03-28T19:52:01.568Z,31.83
2019-03-28T19:54:31.267Z,31.23
2019-03-28T19:57:01.599Z,29.70
2019-03-28T19:59:31.815Z,30.97
2019-03-28T20:02:01.665Z,32.43
2019-03-28T20:04:31.930Z,29.90
2019-03-28T20:07:01.770Z,35.35
2019-03-28T20:09:31.570Z,32.23
2019-03-28T20:12:03.454Z,32.93
2019-03-28T20:14:35.615Z,31.50
2019-03-28T20:17:05.424Z,30.90
2019-03-28T20:19:35.092Z,30.07
2019-03-28T20:22:06.352Z,28.80
2019-03-28T20:24:36.275Z,30.10
2019-03-28T20:27:06.225Z,29.50
2019-03-28T20:29:36.080Z,28.70
2019-03-28T20:32:08.218Z,30.97
2019-03-28T20:34:37.948Z,32.10
2019-03-28T20:37:07.666Z,31.95
2019-03-28T20:39:37.576Z,31.17
2019-03-28T20:42:07.373Z,31.45
2019-03-28T20:44:37.194Z,32.28
2019-03-28T20:47:07.009Z,34.67
2019-03-28T20:49:36.872Z,33.98
2019-03-28T20:52:09.275Z,33.58
2019-03-28T20:54:39.048Z,36.13
2019-03-28T20:57:09.293Z,33.60
2019-03-28T20:59:40.376Z,33.30
2019-03-28T21:02:11.590Z,34.95
2019-03-28T21:04:41.490Z,33.48
2019-03-28T21:07:11.185Z,36.10
2019-03-28T21:09:40.867Z,34.38
2019-03-28T21:12:10.748Z,35.13
2019-03-28T21:14:40.554Z,34.15
2019-03-28T21:17:10.327Z,34.80
2019-03-28T21:19:40.149Z,35.65
2019-03-28T21:22:10.259Z,36.98
2019-03-28T21:24:42.551Z,36.55
2019-03-28T21:27:12.322Z,38.53
2019-03-28T21:29:49.226Z,37.55
2019-03-28T21:32:15.242Z,36.77
2019-03-28T21:34:45.001Z,37.55
2019-03-28T21:37:14.775Z,36.75
2019-03-28T21:39:44.506Z,36.80
2019-03-28T21:42:14.211Z,36.80
2019-03-28T21:44:43.929Z,37.48
2019-03-28T21:47:13.747Z,36.35
2019-03-28T21:49:43.522Z,34.88
2019-03-28T21:52:14.346Z,35.70
2019-03-28T21:54:44.375Z,35.65
2019-03-28T21:57:14.753Z,36.80
2019-03-28T21:59:44.646Z,37.78
2019-03-28T22:02:16.179Z,37.80
2019-03-28T22:04:46.352Z,37.60
2019-03-28T22:07:16.534Z,38.63
2019-03-28T22:09:46.788Z,37.60
2019-03-28T22:12:16.657Z,42.10
2019-03-28T22:14:50.760Z,41.68
2019-03-28T22:17:20.536Z,39.18
2019-03-28T22:19:51.815Z,38.23
2019-03-28T22:22:22.036Z,40.95
2019-03-28T22:24:51.877Z,38.45
2019-03-28T22:27:21.837Z,39.05
2019-03-28T22:29:51.880Z,39.60
2019-03-28T22:32:22.928Z,39.67
2019-03-28T22:34:53.148Z,38.75
2019-03-28T22:37:23.150Z,38.55
2019-03-28T22:39:52.867Z,37.00
2019-03-28T22:42:22.583Z,38.20
2019-03-28T22:44:52.377Z,38.45
2019-03-28T22:47:22.481Z,36.50
2019-03-28T22:49:52.431Z,37.80
2019-03-28T22:52:22.292Z,36.63
2019-03-28T22:54:52.165Z,34.73
2019-03-28T22:57:21.990Z,39.78
2019-03-28T22:59:52.235Z,38.05
2019-03-28T23:02:23.264Z,36.55
2019-03-28T23:04:53.067Z,36.40
2019-03-28T23:07:22.904Z,35.43
2019-03-28T23:09:52.872Z,37.55
2019-03-28T23:12:22.585Z,37.55
2019-03-28T23:14:52.326Z,37.58
2019-03-28T23:17:22.269Z,36.33
2019-03-28T23:19:52.055Z,36.77
2019-03-28T23:22:21.854Z,40.12
2019-03-28T23:24:51.653Z,38.58
2019-03-28T23:27:21.365Z,56.08
2019-03-28T23:29:51.102Z,107.90
2019-03-28T23:32:21.065Z,101.55
2019-03-28T23:34:50.834Z,46.70
2019-03-28T23:37:24.923Z,37.33
2019-03-28T23:39:52.424Z,38.25
2019-03-28T23:42:22.245Z,38.40
2019-03-28T23:44:52.063Z,39.85
2019-03-28T23:47:21.817Z,39.80
2019-03-28T23:49:51.629Z,37.13
2019-03-28T23:52:21.331Z,31.52
2019-03-28T23:54:51.205Z,30.60
2019-03-28T23:57:21.073Z,32.73
2019-03-28T23:59:50.752Z,30.27
